createdAt,value
2023-04-03T00:01:20.778Z,62.70
2023-04-03T00:03:49.124Z,62.98
2023-04-03T00:06:17.578Z,62.44
2023-04-03T00:08:46.069Z,62.48
2023-04-03T00:11:14.507Z,62.48
2023-04-03T00:13:44.837Z,62.19
2023-04-03T00:16:13.991Z,62.32
2023-04-03T00:18:42.446Z,62.42
2023-04-03T00:21:14.137Z,62.50
2023-04-03T00:23:42.478Z,62.70
2023-04-03T00:26:10.858Z,62.58
2023-04-03T00:28:41.617Z,62.63
2023-04-03T00:31:12.142Z,62.49
2023-04-03T00:33:40.536Z,62.80
2023-04-03T00:36:10.453Z,62.76
2023-04-03T00:38:38.957Z,62.59
2023-04-03T00:41:07.734Z,62.47
2023-04-03T00:43:36.502Z,62.32
2023-04-03T00:46:05.429Z,62.48
2023-04-03T00:48:42.076Z,62.98
2023-04-03T00:51:14.924Z,62.76
2023-04-03T00:53:46.826Z,62.66
2023-04-03T00:56:18.903Z,62.51
2023-04-03T00:58:51.707Z,62.55
2023-04-03T01:01:24.009Z,62.56
2023-04-03T01:03:53.993Z,62.50
2023-04-03T01:06:27.812Z,62.44
2023-04-03T01:08:57.651Z,61.92
2023-04-03T01:11:26.146Z,63.07
2023-04-03T01:13:55.596Z,62.39
2023-04-03T01:16:24.013Z,62.51
2023-04-03T01:18:53.810Z,62.78
2023-04-03T01:21:56.727Z,62.27
2023-04-03T01:24:35.100Z,62.44
2023-04-03T01:27:08.772Z,62.57
2023-04-03T01:29:37.793Z,62.34
2023-04-03T01:32:07.852Z,62.49
2023-04-03T01:34:36.469Z,62.28
2023-04-03T01:37:04.847Z,62.82
2023-04-03T01:39:33.163Z,62.58
2023-04-03T01:42:02.441Z,62.41
2023-04-03T01:44:37.751Z,62.70
2023-04-03T01:47:09.122Z,62.49
2023-04-03T01:49:38.534Z,62.67
2023-04-03T01:52:06.961Z,62.73
2023-04-03T01:54:35.432Z,62.65
2023-04-03T01:57:03.886Z,62.76
2023-04-03T01:59:32.622Z,62.69
2023-04-03T02:02:01.456Z,62.79
2023-04-03T02:04:31.082Z,62.72
2023-04-03T02:06:59.665Z,62.53
2023-04-03T02:09:28.480Z,62.79
2023-04-03T02:11:56.867Z,62.60
2023-04-03T02:14:25.651Z,62.96
2023-04-03T02:16:53.945Z,62.63
2023-04-03T02:19:24.688Z,62.73
2023-04-03T02:21:54.374Z,62.50
2023-04-03T02:24:22.778Z,62.75
2023-04-03T02:26:51.124Z,62.80
2023-04-03T02:29:19.414Z,62.92
2023-04-03T02:31:47.742Z,62.85
2023-04-03T02:34:17.130Z,62.90
2023-04-03T02:36:46.687Z,62.95
2023-04-03T02:39:17.392Z,62.95
2023-04-03T02:41:46.706Z,62.80
2023-04-03T02:44:21.025Z,62.86
2023-04-03T02:46:49.418Z,62.90
2023-04-03T02:49:18.913Z,62.82
2023-04-03T02:51:47.208Z,62.89
2023-04-03T02:54:17.028Z,62.93
2023-04-03T02:56:50.031Z,62.99
2023-04-03T02:59:18.659Z,62.86
2023-04-03T03:01:47.106Z,62.92
2023-04-03T03:04:15.575Z,62.94
2023-04-03T03:06:44.924Z,62.81
2023-04-03T03:09:14.152Z,62.84
2023-04-03T03:11:45.989Z,62.99
2023-04-03T03:14:14.292Z,62.96
2023-04-03T03:16:42.579Z,62.93
2023-04-03T03:19:11.100Z,63.02
2023-04-03T03:21:39.512Z,63.11
2023-04-03T03:24:08.525Z,63.01
2023-04-03T03:26:36.972Z,62.98
2023-04-03T03:29:07.338Z,63.04
2023-04-03T03:31:35.875Z,63.08
2023-04-03T03:34:04.194Z,63.18
2023-04-03T03:36:32.728Z,63.15
2023-04-03T03:39:01.250Z,63.21
2023-04-03T03:41:29.712Z,63.09
2023-04-03T03:43:57.993Z,63.30
2023-04-03T03:46:29.405Z,63.37
2023-04-03T03:48:57.783Z,63.30
2023-04-03T03:51:26.200Z,63.27
2023-04-03T03:53:54.755Z,63.25
2023-04-03T03:56:23.361Z,63.13
2023-04-03T03:58:51.695Z,63.10
2023-04-03T04:01:20.024Z,63.14
2023-04-03T04:03:52.211Z,63.17
2023-04-03T04:06:24.358Z,63.27
2023-04-03T04:08:54.863Z,63.23
2023-04-03T04:11:24.477Z,63.18
2023-04-03T04:13:54.080Z,63.02
2023-04-03T04:16:26.840Z,62.84
2023-04-03T04:18:57.657Z,63.12
2023-04-03T04:21:27.081Z,63.00
2023-04-03T04:23:56.219Z,63.03
2023-04-03T04:26:25.910Z,63.25
2023-04-03T04:28:54.710Z,63.14
2023-04-03T04:31:23.250Z,63.05
2023-04-03T04:33:51.808Z,63.22
2023-04-03T04:36:22.087Z,63.07
2023-04-03T04:38:53.740Z,63.13
2023-04-03T04:41:24.310Z,63.14
2023-04-03T04:43:54.171Z,62.87
2023-04-03T04:46:22.817Z,63.11
2023-04-03T04:48:58.072Z,63.18
2023-04-03T04:51:35.148Z,63.37
2023-04-03T04:54:12.116Z,63.35
2023-04-03T04:56:41.462Z,63.31
2023-04-03T04:59:10.614Z,63.34
2023-04-03T05:01:39.093Z,63.58
2023-04-03T05:04:13.679Z,63.63
2023-04-03T05:06:43.776Z,63.70
2023-04-03T05:09:17.095Z,63.80
2023-04-03T05:11:47.238Z,64.04
2023-04-03T05:14:17.735Z,63.98
2023-04-03T05:16:46.734Z,63.83
2023-04-03T05:19:15.354Z,63.79
2023-04-03T05:21:46.361Z,63.60
2023-04-03T05:24:18.094Z,63.66
2023-04-03T05:26:46.392Z,63.66
2023-04-03T05:29:16.458Z,63.60
2023-04-03T05:31:44.856Z,63.37
2023-04-03T05:34:15.048Z,63.19
2023-04-03T05:36:46.502Z,62.90
2023-04-03T05:39:16.700Z,62.62
2023-04-03T05:41:46.936Z,62.71
2023-04-03T05:44:15.909Z,62.53
2023-04-03T05:46:46.203Z,62.51
2023-04-03T05:49:14.547Z,62.44
2023-04-03T05:51:43.091Z,62.13
2023-04-03T05:54:28.932Z,62.16
2023-04-03T05:57:10.167Z,61.83
2023-04-03T05:59:38.994Z,61.89
2023-04-03T06:02:07.314Z,61.87
2023-04-03T06:04:35.707Z,61.94
2023-04-03T06:07:04.202Z,61.76
2023-04-03T06:09:33.873Z,61.85
2023-04-03T06:12:02.882Z,61.76
2023-04-03T06:14:32.157Z,61.54
2023-04-03T06:17:00.644Z,61.54
2023-04-03T06:19:29.027Z,61.51
2023-04-03T06:22:00.016Z,61.57
2023-04-03T06:24:28.779Z,61.57
2023-04-03T06:26:58.914Z,61.44
2023-04-03T06:29:27.300Z,61.38
2023-04-03T06:31:55.607Z,61.28
2023-04-03T06:34:23.857Z,61.32
2023-04-03T06:36:52.505Z,61.41
2023-04-03T06:39:23.340Z,61.31
2023-04-03T06:41:52.280Z,61.57
2023-04-03T06:44:29.677Z,61.78
2023-04-03T06:46:58.003Z,61.76
2023-04-03T06:49:26.303Z,61.35
2023-04-03T06:51:54.632Z,61.65
2023-04-03T06:54:22.958Z,61.62
2023-04-03T06:56:52.103Z,61.56
2023-04-03T06:59:20.731Z,61.98
2023-04-03T07:01:50.571Z,62.18
2023-04-03T07:04:20.595Z,62.79
2023-04-03T07:06:49.003Z,62.05
2023-04-03T07:09:17.552Z,61.99
2023-04-03T07:11:46.144Z,62.21
2023-04-03T07:14:14.383Z,63.02
2023-04-03T07:16:43.041Z,62.23
2023-04-03T07:19:12.828Z,63.58
2023-04-03T07:21:42.918Z,63.40
2023-04-03T07:24:13.233Z,63.48
2023-04-03T07:26:46.205Z,64.20
2023-04-03T07:29:15.698Z,64.23
2023-04-03T07:31:45.812Z,63.32
2023-04-03T07:34:15.544Z,64.10
2023-04-03T07:36:43.848Z,65.48
2023-04-03T07:39:12.193Z,64.85
2023-04-03T07:41:40.547Z,65.65
2023-04-03T07:44:10.720Z,65.21
2023-04-03T07:46:39.230Z,65.25
2023-04-03T07:49:10.014Z,65.64
2023-04-03T07:51:39.648Z,65.69
2023-04-03T07:54:08.059Z,67.49
2023-04-03T07:56:36.339Z,66.11
2023-04-03T07:59:04.875Z,67.11
2023-04-03T08:01:34.653Z,67.39
2023-04-03T08:04:03.808Z,66.95
2023-04-03T08:06:45.573Z,66.93
2023-04-03T08:09:16.919Z,66.59
2023-04-03T08:11:45.550Z,67.93
2023-04-03T08:14:17.894Z,66.34
2023-04-03T08:16:47.614Z,67.56
2023-04-03T08:19:25.566Z,66.59
2023-04-03T08:21:56.440Z,65.67
2023-04-03T08:24:26.386Z,65.84
2023-04-03T08:26:54.767Z,67.97
2023-04-03T08:29:23.279Z,66.94
2023-04-03T08:31:51.887Z,67.48
2023-04-03T08:34:21.186Z,69.60
2023-04-03T08:36:49.726Z,68.96
2023-04-03T08:39:18.067Z,67.90
2023-04-03T08:41:48.936Z,67.65
2023-04-03T08:44:26.125Z,68.52
2023-04-03T08:47:02.021Z,68.68
2023-04-03T08:49:33.590Z,69.04
2023-04-03T08:52:06.673Z,67.68
2023-04-03T08:54:37.561Z,69.61
2023-04-03T08:57:08.180Z,68.27
2023-04-03T08:59:39.128Z,66.78
2023-04-03T09:02:24.964Z,67.51
2023-04-03T09:04:53.386Z,69.85
2023-04-03T09:07:28.098Z,69.16
2023-04-03T09:09:59.951Z,69.18
2023-04-03T09:12:34.847Z,70.00
2023-04-03T09:15:17.937Z,68.46
2023-04-03T09:17:59.048Z,69.52
2023-04-03T09:20:35.773Z,68.75
2023-04-03T09:23:15.886Z,69.55
2023-04-03T09:25:45.333Z,68.17
2023-04-03T09:28:15.667Z,68.86
2023-04-03T09:30:43.970Z,69.10
2023-04-03T09:33:13.823Z,71.35
2023-04-03T09:35:48.737Z,71.04
2023-04-03T09:38:21.214Z,72.40
2023-04-03T09:40:52.609Z,70.69
2023-04-03T09:43:31.552Z,69.74
2023-04-03T09:46:20.697Z,70.15
2023-04-03T09:49:05.132Z,70.77
2023-04-03T09:51:37.495Z,71.66
2023-04-03T09:54:38.575Z,73.44
2023-04-03T09:57:11.369Z,71.61
2023-04-03T09:59:46.759Z,70.09
2023-04-03T10:02:30.954Z,72.86
2023-04-03T10:07:36.911Z,72.01
2023-04-03T10:10:21.198Z,97.53
2023-04-03T10:12:50.282Z,104.45
2023-04-03T10:15:21.151Z,101.54
2023-04-03T10:17:56.395Z,102.81
2023-04-03T10:20:33.461Z,99.96
2023-04-03T10:23:16.908Z,106.44
2023-04-03T10:25:57.483Z,105.39
2023-04-03T10:28:33.232Z,104.55
2023-04-03T10:31:08.697Z,103.58
2023-04-03T10:33:53.781Z,103.51
2023-04-03T10:36:32.258Z,104.17
2023-04-03T10:39:06.653Z,105.25
2023-04-03T10:41:43.878Z,100.00
2023-04-03T10:44:22.763Z,109.63
2023-04-03T10:46:57.560Z,105.95
2023-04-03T10:49:40.652Z,105.37
2023-04-03T10:52:18.695Z,103.75
2023-04-03T10:54:51.716Z,103.01
2023-04-03T10:57:21.776Z,103.89
2023-04-03T10:59:53.658Z,105.61
2023-04-03T11:02:30.252Z,105.34
2023-04-03T11:05:03.617Z,98.15
2023-04-03T11:07:37.443Z,100.93
2023-04-03T11:10:14.825Z,98.07
2023-04-03T11:12:50.520Z,98.93
2023-04-03T11:15:20.873Z,101.64
2023-04-03T11:17:56.221Z,102.73
2023-04-03T11:20:31.241Z,96.50
2023-04-03T11:23:04.233Z,96.33
2023-04-03T11:25:36.138Z,94.17
2023-04-03T11:28:06.754Z,94.23
2023-04-03T11:30:42.795Z,93.55
2023-04-03T11:33:45.478Z,93.37
2023-04-03T11:36:26.547Z,91.31
2023-04-03T11:39:01.355Z,90.92
2023-04-03T11:41:32.501Z,91.69
2023-04-03T11:44:03.042Z,91.93
2023-04-03T11:46:58.034Z,91.11
2023-04-03T11:49:57.772Z,89.66
2023-04-03T11:52:58.218Z,86.97
2023-04-03T11:55:45.986Z,89.11
2023-04-03T11:58:16.766Z,88.46
2023-04-03T12:01:07.218Z,83.04
2023-04-03T12:04:09.072Z,83.16
2023-04-03T12:07:14.438Z,85.15
2023-04-03T12:10:03.783Z,85.90
2023-04-03T12:12:38.927Z,85.94
2023-04-03T12:15:27.470Z,86.54
2023-04-03T12:17:56.182Z,84.21
2023-04-03T12:20:56.509Z,87.29
2023-04-03T12:23:29.764Z,83.81
2023-04-03T12:26:06.148Z,81.76
2023-04-03T12:28:41.799Z,79.46
2023-04-03T12:31:13.079Z,80.57
2023-04-03T12:34:00.821Z,80.65
2023-04-03T12:36:38.779Z,78.52
2023-04-03T12:39:28.872Z,78.82
2023-04-03T12:42:05.284Z,79.83
2023-04-03T12:44:47.410Z,75.45
2023-04-03T12:47:25.915Z,77.54
2023-04-03T12:49:56.234Z,78.89
2023-04-03T12:52:34.675Z,77.72
2023-04-03T12:55:11.067Z,77.46
2023-04-03T12:57:39.426Z,76.60
2023-04-03T13:00:29.961Z,76.86
2023-04-03T13:02:58.631Z,76.15
2023-04-03T13:05:27.650Z,76.56
2023-04-03T13:08:01.082Z,75.51
2023-04-03T13:10:32.366Z,75.83
2023-04-03T13:13:10.265Z,74.22
2023-04-03T13:15:46.238Z,75.19
2023-04-03T13:18:25.977Z,74.37
2023-04-03T13:20:55.139Z,73.25
2023-04-03T13:23:24.342Z,73.39
2023-04-03T13:25:54.159Z,72.63
2023-04-03T13:28:24.828Z,76.31
2023-04-03T13:31:04.575Z,73.41
2023-04-03T13:33:38.639Z,71.14
2023-04-03T13:36:09.973Z,70.15
2023-04-03T13:38:40.640Z,71.00
2023-04-03T13:41:28.414Z,71.06
2023-04-03T13:44:03.389Z,71.15
2023-04-03T13:46:38.721Z,72.11
2023-04-03T13:49:21.536Z,70.70
2023-04-03T13:52:04.446Z,70.00
2023-04-03T13:54:38.311Z,71.68
2023-04-03T13:57:16.864Z,72.45
2023-04-03T13:59:45.651Z,69.26
2023-04-03T14:02:22.841Z,69.29
2023-04-03T14:04:57.380Z,71.40
2023-04-03T14:07:26.096Z,70.61
2023-04-03T14:09:55.196Z,69.09
2023-04-03T14:12:31.823Z,69.45
2023-04-03T14:15:02.051Z,74.12
2023-04-03T14:17:32.218Z,71.20
2023-04-03T14:20:02.031Z,69.91
2023-04-03T14:22:33.010Z,70.07
2023-04-03T14:25:01.918Z,71.25
2023-04-03T14:27:36.583Z,71.27
2023-04-03T14:30:06.440Z,70.47
2023-04-03T14:32:35.946Z,68.87
2023-04-03T14:35:04.493Z,69.19
2023-04-03T14:37:33.361Z,70.61
2023-04-03T14:40:04.784Z,69.16
2023-04-03T14:42:36.840Z,67.94
2023-04-03T14:45:07.114Z,68.81
2023-04-03T14:47:36.959Z,68.33
2023-04-03T14:50:07.151Z,68.87
2023-04-03T14:52:37.548Z,67.36
2023-04-03T14:55:07.927Z,66.69
2023-04-03T14:57:41.542Z,67.50
2023-04-03T15:00:15.472Z,66.66
2023-04-03T15:02:44.172Z,68.86
2023-04-03T15:05:13.672Z,65.88
2023-04-03T15:07:44.407Z,65.89
2023-04-03T15:10:19.819Z,67.78
2023-04-03T15:12:50.804Z,65.28
2023-04-03T15:15:21.386Z,64.24
2023-04-03T15:17:54.870Z,63.60
2023-04-03T15:20:26.165Z,62.55
2023-04-03T15:22:57.219Z,64.67
2023-04-03T15:25:26.487Z,63.35
2023-04-03T15:27:59.144Z,63.41
2023-04-03T15:30:27.493Z,63.78
2023-04-03T15:32:55.825Z,63.21
2023-04-03T15:35:24.506Z,61.38
2023-04-03T15:37:52.781Z,62.31
2023-04-03T15:40:21.493Z,61.89
2023-04-03T15:42:50.979Z,62.55
2023-04-03T15:45:22.834Z,62.37
2023-04-03T15:47:51.410Z,62.59
2023-04-03T15:50:19.862Z,65.23
2023-04-03T15:52:48.217Z,67.29
2023-04-03T15:55:16.578Z,67.43
2023-04-03T15:57:44.943Z,69.10
2023-04-03T16:00:14.662Z,71.59
2023-04-03T16:02:44.980Z,71.26
2023-04-03T16:05:14.618Z,70.16
2023-04-03T16:07:43.131Z,69.99
2023-04-03T16:10:12.870Z,71.30
2023-04-03T16:12:41.309Z,70.68
2023-04-03T16:15:10.299Z,70.66
2023-04-03T16:17:39.820Z,70.62
2023-04-03T16:20:12.399Z,71.98
2023-04-03T16:22:41.177Z,70.43
2023-04-03T16:25:10.845Z,71.50
2023-04-03T16:27:39.463Z,71.38
2023-04-03T16:30:09.561Z,71.94
2023-04-03T16:32:39.109Z,72.76
2023-04-03T16:35:11.524Z,71.71
2023-04-03T16:37:40.942Z,70.90
2023-04-03T16:40:10.561Z,69.79
2023-04-03T16:42:38.827Z,70.63
2023-04-03T16:45:08.099Z,70.55
2023-04-03T16:47:36.684Z,72.44
2023-04-03T16:50:05.748Z,73.97
2023-04-03T16:52:35.483Z,72.34
2023-04-03T16:55:03.966Z,71.90
2023-04-03T16:57:32.234Z,70.53
2023-04-03T17:00:00.577Z,69.20
2023-04-03T17:02:28.957Z,72.33
2023-04-03T17:04:57.343Z,73.98
2023-04-03T17:07:27.027Z,75.33
2023-04-03T17:09:56.749Z,76.14
2023-04-03T17:12:25.390Z,76.81
2023-04-03T17:14:53.785Z,77.04
2023-04-03T17:17:24.683Z,78.23
2023-04-03T17:19:54.913Z,78.30
2023-04-03T17:22:23.309Z,79.29
2023-04-03T17:24:51.600Z,78.48
2023-04-03T17:27:21.273Z,78.50
2023-04-03T17:29:49.560Z,79.43
2023-04-03T17:32:18.158Z,79.66
2023-04-03T17:34:47.752Z,81.76
2023-04-03T17:37:16.437Z,80.57
2023-04-03T17:39:45.457Z,79.78
2023-04-03T17:42:13.889Z,80.45
2023-04-03T17:44:43.530Z,81.47
2023-04-03T17:47:11.808Z,82.46
2023-04-03T17:49:40.322Z,82.41
2023-04-03T17:52:08.572Z,83.07
2023-04-03T17:54:36.914Z,83.26
2023-04-03T17:57:05.729Z,84.16
2023-04-03T17:59:34.549Z,84.00
2023-04-03T18:02:04.881Z,84.61
2023-04-03T18:04:33.250Z,85.16
2023-04-03T18:07:03.979Z,85.57
2023-04-03T18:09:33.712Z,84.99
2023-04-03T18:12:04.882Z,84.46
2023-04-03T18:14:35.047Z,85.85
2023-04-03T18:17:05.034Z,85.67
2023-04-03T18:19:33.803Z,86.32
2023-04-03T18:22:05.841Z,87.01
2023-04-03T18:24:35.969Z,86.76
2023-04-03T18:27:08.075Z,87.22
2023-04-03T18:29:38.640Z,87.18
2023-04-03T18:32:11.175Z,88.01
2023-04-03T18:34:39.530Z,87.64
2023-04-03T18:37:07.868Z,87.55
2023-04-03T18:39:36.328Z,87.76
2023-04-03T18:42:09.631Z,87.46
2023-04-03T18:44:39.217Z,87.48
2023-04-03T18:47:09.459Z,87.54
2023-04-03T18:49:40.360Z,88.02
2023-04-03T18:52:10.362Z,89.16
2023-04-03T18:54:38.997Z,90.45
2023-04-03T18:57:07.456Z,90.70
2023-04-03T18:59:35.906Z,91.89
2023-04-03T19:02:05.359Z,92.53
2023-04-03T19:04:35.739Z,92.54
2023-04-03T19:07:06.383Z,93.91
2023-04-03T19:09:35.516Z,94.04
2023-04-03T19:12:03.835Z,94.70
2023-04-03T19:14:32.418Z,94.76
2023-04-03T19:17:02.333Z,94.84
2023-04-03T19:19:31.129Z,94.98
2023-04-03T19:22:00.784Z,95.39
2023-04-03T19:24:29.044Z,95.81
2023-04-03T19:26:57.338Z,95.47
2023-04-03T19:29:25.639Z,95.68
2023-04-03T19:31:53.937Z,95.80
2023-04-03T19:34:22.274Z,96.23
2023-04-03T19:36:52.224Z,95.93
2023-04-03T19:39:22.034Z,96.17
2023-04-03T19:41:50.895Z,96.34
2023-04-03T19:44:19.463Z,96.74
2023-04-03T19:46:51.043Z,96.67
2023-04-03T19:49:20.661Z,97.09
2023-04-03T19:51:49.145Z,96.97
2023-04-03T19:54:17.810Z,97.60
2023-04-03T19:56:47.532Z,97.62
2023-04-03T19:59:17.490Z,97.88
2023-04-03T20:01:47.330Z,97.05
2023-04-03T20:04:16.160Z,97.89
2023-04-03T20:06:44.503Z,98.13
2023-04-03T20:09:12.766Z,97.45
2023-04-03T20:11:41.372Z,97.83
2023-04-03T20:14:11.112Z,98.42
2023-04-03T20:16:39.939Z,98.02
2023-04-03T20:19:08.266Z,98.19
2023-04-03T20:21:37.193Z,98.08
2023-04-03T20:24:09.986Z,97.66
2023-04-03T20:26:43.847Z,97.97
2023-04-03T20:29:14.676Z,97.90
2023-04-03T20:31:43.688Z,99.03
2023-04-03T20:34:12.033Z,98.31
2023-04-03T20:36:40.440Z,97.51
2023-04-03T20:39:08.806Z,98.17
2023-04-03T20:41:38.502Z,98.29
2023-04-03T20:44:07.024Z,98.33
2023-04-03T20:46:51.522Z,98.04
2023-04-03T20:49:21.625Z,98.42
2023-04-03T20:51:50.567Z,97.96
2023-04-03T20:54:19.355Z,98.20
2023-04-03T20:56:49.861Z,98.09
2023-04-03T20:59:18.916Z,98.67
2023-04-03T21:01:49.015Z,98.12
2023-04-03T21:04:21.908Z,99.23
2023-04-03T21:07:27.987Z,98.79
2023-04-03T21:10:33.635Z,98.77
2023-04-03T21:13:39.571Z,99.74
2023-04-03T21:16:07.758Z,99.10
2023-04-03T21:19:04.355Z,98.76
2023-04-03T21:21:37.249Z,99.21
2023-04-03T21:24:10.080Z,98.87
2023-04-03T21:26:39.588Z,99.93
2023-04-03T21:29:08.516Z,99.44
2023-04-03T21:31:51.689Z,98.76
2023-04-03T21:34:23.531Z,100.24
2023-04-03T21:36:52.919Z,99.13
2023-04-03T21:39:21.788Z,100.04
2023-04-03T21:41:50.856Z,99.84
2023-04-03T21:44:19.609Z,100.16
2023-04-03T21:46:48.815Z,99.64
2023-04-03T21:49:17.361Z,99.83
2023-04-03T21:51:46.971Z,100.19
2023-04-03T21:54:15.750Z,100.58
2023-04-03T21:56:44.261Z,99.36
2023-04-03T21:59:12.817Z,100.42
2023-04-03T22:01:41.501Z,99.19
2023-04-03T22:04:09.811Z,99.96
2023-04-03T22:06:38.527Z,99.90
2023-04-03T22:09:08.225Z,99.34
2023-04-03T22:11:41.560Z,99.55
2023-04-03T22:14:09.882Z,99.61
2023-04-03T22:16:39.966Z,99.35
2023-04-03T22:19:08.173Z,99.58
2023-04-03T22:21:36.451Z,100.45
2023-04-03T22:24:04.923Z,99.63
2023-04-03T22:26:35.588Z,99.22
2023-04-03T22:29:04.227Z,99.71
2023-04-03T22:31:32.851Z,99.83
2023-04-03T22:34:04.175Z,100.30
2023-04-03T22:36:32.419Z,99.97
2023-04-03T22:39:03.219Z,99.36
2023-04-03T22:41:32.577Z,100.04
2023-04-03T22:44:02.196Z,100.27
2023-04-03T22:46:30.499Z,100.18
2023-04-03T22:48:58.921Z,99.63
2023-04-03T22:51:27.183Z,100.46
2023-04-03T22:53:55.499Z,100.30
2023-04-03T22:56:26.007Z,99.50
2023-04-03T22:58:55.415Z,99.47
2023-04-03T23:01:25.242Z,100.02
2023-04-03T23:03:53.692Z,99.94
2023-04-03T23:06:22.010Z,99.58
2023-04-03T23:08:50.947Z,99.51
2023-04-03T23:11:19.189Z,100.67
2023-04-03T23:13:47.459Z,100.02
2023-04-03T23:16:15.797Z,100.00
2023-04-03T23:18:45.534Z,100.58
2023-04-03T23:21:13.852Z,100.41
2023-04-03T23:23:42.205Z,99.53
2023-04-03T23:26:11.144Z,100.60
2023-04-03T23:28:39.583Z,101.19
2023-04-03T23:31:08.442Z,100.58
2023-04-03T23:33:38.524Z,100.37
2023-04-03T23:36:12.892Z,100.54
2023-04-03T23:38:41.258Z,100.48
2023-04-03T23:41:09.628Z,101.03
2023-04-03T23:43:38.034Z,100.17
2023-04-03T23:46:06.400Z,100.25
2023-04-03T23:48:34.698Z,99.91
2023-04-03T23:51:03.808Z,100.37
2023-04-03T23:53:33.432Z,99.41
2023-04-03T23:56:01.660Z,100.06
2023-04-03T23:58:29.938Z,100.22
